sensor_id;sensor_type;location;lat;lon;timestamp;temperature;humidity
2657;DHT22;1338;48.176;11.792;2023-01-04T00:01:45;1.20;99.90
2657;DHT22;1338;48.176;11.792;2023-01-04T00:04:15;1.40;99.90
2657;DHT22;1338;48.176;11.792;2023-01-04T00:06:43;1.20;99.90
2657;DHT22;1338;48.176;11.792;2023-01-04T00:09:11;1.20;99.90
2657;DHT22;1338;48.176;11.792;2023-01-04T00:11:39;1.30;99.90
2657;DHT22;1338;48.176;11.792;2023-01-04T00:14:10;1.20;99.90
2657;DHT22;1338;48.176;11.792;2023-01-04T00:16:38;1.30;99.90
2657;DHT22;1338;48.176;11.792;2023-01-04T00:19:06;1.20;99.90
2657;DHT22;1338;48.176;11.792;2023-01-04T00:21:35;1.20;99.90
2657;DHT22;1338;48.176;11.792;2023-01-04T00:24:04;1.20;99.90
2657;DHT22;1338;48.176;11.792;2023-01-04T00:26:33;0.80;99.90
2657;DHT22;1338;48.176;11.792;2023-01-04T00:29:04;0.90;99.90
2657;DHT22;1338;48.176;11.792;2023-01-04T00:31:33;0.90;99.90
2657;DHT22;1338;48.176;11.792;2023-01-04T00:34:03;0.90;99.90
2657;DHT22;1338;48.176;11.792;2023-01-04T00:36:32;0.80;99.90
2657;DHT22;1338;48.176;11.792;2023-01-04T00:39:02;1.00;99.90
2657;DHT22;1338;48.176;11.792;2023-01-04T00:41:38;0.90;99.90
2657;DHT22;1338;48.176;11.792;2023-01-04T00:44:27;0.90;99.90
2657;DHT22;1338;48.176;11.792;2023-01-04T00:46:56;0.90;99.90
2657;DHT22;1338;48.176;11.792;2023-01-04T00:49:25;0.80;99.90
2657;DHT22;1338;48.176;11.792;2023-01-04T00:51:53;0.80;99.90
2657;DHT22;1338;48.176;11.792;2023-01-04T00:54:23;0.80;99.90
2657;DHT22;1338;48.176;11.792;2023-01-04T00:56:51;1.00;1.00
2657;DHT22;1338;48.176;11.792;2023-01-04T00:59:20;1.00;1.00
2657;DHT22;1338;48.176;11.792;2023-01-04T01:01:49;1.10;1.00
2657;DHT22;1338;48.176;11.792;2023-01-04T01:04:20;1.20;1.00
2657;DHT22;1338;48.176;11.792;2023-01-04T01:06:49;1.10;1.00
2657;DHT22;1338;48.176;11.792;2023-01-04T01:09:18;1.10;1.00
2657;DHT22;1338;48.176;11.792;2023-01-04T01:11:50;1.20;1.00
2657;DHT22;1338;48.176;11.792;2023-01-04T01:14:21;1.30;1.00
2657;DHT22;1338;48.176;11.792;2023-01-04T01:16:50;1.40;1.00
2657;DHT22;1338;48.176;11.792;2023-01-04T01:19:26;1.60;1.00
2657;DHT22;1338;48.176;11.792;2023-01-04T01:21:56;1.40;1.00
2657;DHT22;1338;48.176;11.792;2023-01-04T01:24:25;1.50;1.00
2657;DHT22;1338;48.176;11.792;2023-01-04T01:26:55;1.70;1.00
2657;DHT22;1338;48.176;11.792;2023-01-04T01:29:23;1.50;1.00
2657;DHT22;1338;48.176;11.792;2023-01-04T01:31:52;1.60;1.00
2657;DHT22;1338;48.176;11.792;2023-01-04T01:34:20;1.80;1.00
2657;DHT22;1338;48.176;11.792;2023-01-04T01:36:48;1.60;1.00
2657;DHT22;1338;48.176;11.792;2023-01-04T01:39:17;1.60;1.00
2657;DHT22;1338;48.176;11.792;2023-01-04T01:41:45;1.40;1.00
2657;DHT22;1338;48.176;11.792;2023-01-04T01:44:58;1.50;1.00
2657;DHT22;1338;48.176;11.792;2023-01-04T01:47:30;1.30;1.00
2657;DHT22;1338;48.176;11.792;2023-01-04T01:50:03;1.30;1.00
2657;DHT22;1338;48.176;11.792;2023-01-04T01:52:36;1.20;1.00
2657;DHT22;1338;48.176;11.792;2023-01-04T01:55:08;1.00;1.00
2657;DHT22;1338;48.176;11.792;2023-01-04T01:57:38;0.80;1.00
2657;DHT22;1338;48.176;11.792;2023-01-04T02:00:10;0.60;1.00
2657;DHT22;1338;48.176;11.792;2023-01-04T02:02:43;0.40;1.00
2657;DHT22;1338;48.176;11.792;2023-01-04T02:05:13;0.20;99.90
2657;DHT22;1338;48.176;11.792;2023-01-04T02:07:42;-0.10;99.90
2657;DHT22;1338;48.176;11.792;2023-01-04T02:10:11;0.00;99.90
2657;DHT22;1338;48.176;11.792;2023-01-04T02:12:40;0.00;1.00
2657;DHT22;1338;48.176;11.792;2023-01-04T02:15:10;0.00;1.00
2657;DHT22;1338;48.176;11.792;2023-01-04T02:17:45;0.10;1.00
2657;DHT22;1338;48.176;11.792;2023-01-04T02:20:31;0.10;1.00
2657;DHT22;1338;48.176;11.792;2023-01-04T02:32:17;0.50;1.00
2657;DHT22;1338;48.176;11.792;2023-01-04T02:34:52;0.30;1.00
2657;DHT22;1338;48.176;11.792;2023-01-04T02:37:30;0.50;1.00
2657;DHT22;1338;48.176;11.792;2023-01-04T02:40:07;0.30;1.00
2657;DHT22;1338;48.176;11.792;2023-01-04T02:42:43;0.50;1.00
2657;DHT22;1338;48.176;11.792;2023-01-04T02:45:33;0.80;1.00
2657;DHT22;1338;48.176;11.792;2023-01-04T02:48:05;0.70;1.00
2657;DHT22;1338;48.176;11.792;2023-01-04T02:50:52;0.60;1.00
2657;DHT22;1338;48.176;11.792;2023-01-04T02:53:27;0.40;1.00
2657;DHT22;1338;48.176;11.792;2023-01-04T02:56:07;0.40;1.00
2657;DHT22;1338;48.176;11.792;2023-01-04T02:58:49;0.50;1.00
2657;DHT22;1338;48.176;11.792;2023-01-04T03:01:25;0.50;1.00
2657;DHT22;1338;48.176;11.792;2023-01-04T03:04:29;0.40;1.00
2657;DHT22;1338;48.176;11.792;2023-01-04T03:07:22;0.30;1.00
2657;DHT22;1338;48.176;11.792;2023-01-04T03:09:55;0.20;1.00
2657;DHT22;1338;48.176;11.792;2023-01-04T03:12:28;0.10;1.00
2657;DHT22;1338;48.176;11.792;2023-01-04T03:15:03;0.10;1.00
2657;DHT22;1338;48.176;11.792;2023-01-04T03:17:36;0.10;1.00
2657;DHT22;1338;48.176;11.792;2023-01-04T03:20:11;0.20;1.00
2657;DHT22;1338;48.176;11.792;2023-01-04T03:22:44;0.40;4.10
2657;DHT22;1338;48.176;11.792;2023-01-04T03:25:36;0.50;12.60
2657;DHT22;1338;48.176;11.792;2023-01-04T03:28:25;0.50;29.20
2657;DHT22;1338;48.176;11.792;2023-01-04T03:31:15;0.50;40.70
2657;DHT22;1338;48.176;11.792;2023-01-04T03:34:03;0.70;56.50
2657;DHT22;1338;48.176;11.792;2023-01-04T03:36:57;0.50;50.00
2657;DHT22;1338;48.176;11.792;2023-01-04T03:39:48;0.50;68.60
2657;DHT22;1338;48.176;11.792;2023-01-04T03:42:44;0.50;99.90
2657;DHT22;1338;48.176;11.792;2023-01-04T03:45:32;0.50;99.90
2657;DHT22;1338;48.176;11.792;2023-01-04T03:48:23;0.60;99.90
2657;DHT22;1338;48.176;11.792;2023-01-04T03:51:02;0.70;99.90
2657;DHT22;1338;48.176;11.792;2023-01-04T03:53:37;0.80;99.90
2657;DHT22;1338;48.176;11.792;2023-01-04T03:56:08;0.80;99.90
2657;DHT22;1338;48.176;11.792;2023-01-04T03:58:38;0.90;99.90
2657;DHT22;1338;48.176;11.792;2023-01-04T04:01:06;1.00;99.90
2657;DHT22;1338;48.176;11.792;2023-01-04T04:03:35;1.10;99.90
2657;DHT22;1338;48.176;11.792;2023-01-04T04:06:20;1.20;99.90
2657;DHT22;1338;48.176;11.792;2023-01-04T04:09:07;1.20;99.90
2657;DHT22;1338;48.176;11.792;2023-01-04T04:11:35;1.30;99.90
2657;DHT22;1338;48.176;11.792;2023-01-04T04:14:03;1.50;99.90
2657;DHT22;1338;48.176;11.792;2023-01-04T04:16:32;1.50;99.90
2657;DHT22;1338;48.176;11.792;2023-01-04T04:19:00;1.50;99.90
2657;DHT22;1338;48.176;11.792;2023-01-04T04:21:34;1.60;99.90
2657;DHT22;1338;48.176;11.792;2023-01-04T04:24:03;1.50;99.90
2657;DHT22;1338;48.176;11.792;2023-01-04T04:26:33;1.50;99.90
2657;DHT22;1338;48.176;11.792;2023-01-04T04:29:01;1.60;99.90
2657;DHT22;1338;48.176;11.792;2023-01-04T04:31:29;1.50;99.90
2657;DHT22;1338;48.176;11.792;2023-01-04T04:33:57;1.50;99.90
2657;DHT22;1338;48.176;11.792;2023-01-04T04:36:25;1.50;99.90
2657;DHT22;1338;48.176;11.792;2023-01-04T04:38:54;1.40;99.90
2657;DHT22;1338;48.176;11.792;2023-01-04T04:41:22;1.40;99.90
2657;DHT22;1338;48.176;11.792;2023-01-04T04:44:07;1.30;99.90
2657;DHT22;1338;48.176;11.792;2023-01-04T04:46:36;1.20;99.90
2657;DHT22;1338;48.176;11.792;2023-01-04T04:49:05;1.10;99.90
2657;DHT22;1338;48.176;11.792;2023-01-04T04:51:34;1.00;99.90
2657;DHT22;1338;48.176;11.792;2023-01-04T04:54:03;0.90;99.90
2657;DHT22;1338;48.176;11.792;2023-01-04T04:56:31;0.90;99.90
2657;DHT22;1338;48.176;11.792;2023-01-04T04:59:00;0.90;99.90
2657;DHT22;1338;48.176;11.792;2023-01-04T05:01:29;0.90;99.90
2657;DHT22;1338;48.176;11.792;2023-01-04T05:03:57;0.70;99.90
2657;DHT22;1338;48.176;11.792;2023-01-04T05:06:26;0.90;99.90
2657;DHT22;1338;48.176;11.792;2023-01-04T05:08:54;0.80;99.90
2657;DHT22;1338;48.176;11.792;2023-01-04T05:11:23;0.80;99.90
2657;DHT22;1338;48.176;11.792;2023-01-04T05:14:05;0.80;99.90
2657;DHT22;1338;48.176;11.792;2023-01-04T05:16:34;0.70;99.90
2657;DHT22;1338;48.176;11.792;2023-01-04T05:19:03;0.60;99.90
2657;DHT22;1338;48.176;11.792;2023-01-04T05:21:31;0.60;99.90
2657;DHT22;1338;48.176;11.792;2023-01-04T05:23:59;0.60;99.90
2657;DHT22;1338;48.176;11.792;2023-01-04T05:26:27;0.60;99.90
2657;DHT22;1338;48.176;11.792;2023-01-04T05:28:55;0.70;99.90
2657;DHT22;1338;48.176;11.792;2023-01-04T05:31:24;0.70;99.90
2657;DHT22;1338;48.176;11.792;2023-01-04T05:33:52;0.70;99.90
2657;DHT22;1338;48.176;11.792;2023-01-04T05:36:21;0.70;99.90
2657;DHT22;1338;48.176;11.792;2023-01-04T05:38:49;0.60;99.90
2657;DHT22;1338;48.176;11.792;2023-01-04T05:41:17;0.50;99.90
2657;DHT22;1338;48.176;11.792;2023-01-04T05:44:03;0.50;99.90
2657;DHT22;1338;48.176;11.792;2023-01-04T05:46:31;0.50;99.90
2657;DHT22;1338;48.176;11.792;2023-01-04T05:49:00;0.60;99.90
2657;DHT22;1338;48.176;11.792;2023-01-04T05:51:29;0.60;99.90
2657;DHT22;1338;48.176;11.792;2023-01-04T05:53:57;0.50;99.90
2657;DHT22;1338;48.176;11.792;2023-01-04T05:56:25;0.60;99.90
2657;DHT22;1338;48.176;11.792;2023-01-04T05:58:53;0.60;99.90
2657;DHT22;1338;48.176;11.792;2023-01-04T06:01:21;0.60;99.90
2657;DHT22;1338;48.176;11.792;2023-01-04T06:03:49;0.60;99.90
2657;DHT22;1338;48.176;11.792;2023-01-04T06:06:19;0.70;99.90
2657;DHT22;1338;48.176;11.792;2023-01-04T06:08:47;0.70;99.90
2657;DHT22;1338;48.176;11.792;2023-01-04T06:11:15;0.80;99.90
2657;DHT22;1338;48.176;11.792;2023-01-04T06:13:51;0.90;99.90
2657;DHT22;1338;48.176;11.792;2023-01-04T06:16:19;0.90;99.90
2657;DHT22;1338;48.176;11.792;2023-01-04T06:18:47;1.00;99.90
2657;DHT22;1338;48.176;11.792;2023-01-04T06:21:15;1.10;99.90
2657;DHT22;1338;48.176;11.792;2023-01-04T06:23:45;1.20;99.90
2657;DHT22;1338;48.176;11.792;2023-01-04T06:26:13;1.30;99.90
2657;DHT22;1338;48.176;11.792;2023-01-04T06:28:41;1.40;99.90
2657;DHT22;1338;48.176;11.792;2023-01-04T06:31:10;1.40;99.90
2657;DHT22;1338;48.176;11.792;2023-01-04T06:33:39;1.50;99.90
2657;DHT22;1338;48.176;11.792;2023-01-04T06:36:07;1.50;99.90
2657;DHT22;1338;48.176;11.792;2023-01-04T06:38:47;1.60;99.90
2657;DHT22;1338;48.176;11.792;2023-01-04T06:41:16;1.80;99.90
2657;DHT22;1338;48.176;11.792;2023-01-04T06:43:44;2.00;95.70
2657;DHT22;1338;48.176;11.792;2023-01-04T06:46:12;2.30;1.00
2657;DHT22;1338;48.176;11.792;2023-01-04T06:48:40;2.50;1.00
2657;DHT22;1338;48.176;11.792;2023-01-04T06:51:09;2.70;1.00
2657;DHT22;1338;48.176;11.792;2023-01-04T06:53:37;3.00;1.00
2657;DHT22;1338;48.176;11.792;2023-01-04T06:56:08;3.30;99.90
2657;DHT22;1338;48.176;11.792;2023-01-04T06:58:36;3.20;65.40
2657;DHT22;1338;48.176;11.792;2023-01-04T07:01:05;3.20;1.00
2657;DHT22;1338;48.176;11.792;2023-01-04T07:03:33;3.10;64.80
2657;DHT22;1338;48.176;11.792;2023-01-04T07:06:03;3.00;86.10
2657;DHT22;1338;48.176;11.792;2023-01-04T07:08:33;2.90;93.00
2657;DHT22;1338;48.176;11.792;2023-01-04T07:11:01;2.90;99.90
2657;DHT22;1338;48.176;11.792;2023-01-04T07:13:31;3.00;98.10
2657;DHT22;1338;48.176;11.792;2023-01-04T07:15:59;2.90;93.30
2657;DHT22;1338;48.176;11.792;2023-01-04T07:18:27;2.80;99.90
2657;DHT22;1338;48.176;11.792;2023-01-04T07:20:55;2.80;99.90
2657;DHT22;1338;48.176;11.792;2023-01-04T07:23:23;2.70;99.90
2657;DHT22;1338;48.176;11.792;2023-01-04T07:25:52;2.80;99.90
2657;DHT22;1338;48.176;11.792;2023-01-04T07:28:20;2.70;99.90
2657;DHT22;1338;48.176;11.792;2023-01-04T07:31:07;2.70;99.90
2657;DHT22;1338;48.176;11.792;2023-01-04T07:33:35;2.70;99.90
2657;DHT22;1338;48.176;11.792;2023-01-04T07:36:05;2.50;66.00
2657;DHT22;1338;48.176;11.792;2023-01-04T07:38:33;2.60;75.80
2657;DHT22;1338;48.176;11.792;2023-01-04T07:41:02;2.40;9.50
2657;DHT22;1338;48.176;11.792;2023-01-04T07:43:30;2.40;63.60
2657;DHT22;1338;48.176;11.792;2023-01-04T07:45:58;2.50;99.90
2657;DHT22;1338;48.176;11.792;2023-01-04T07:48:28;2.40;61.80
2657;DHT22;1338;48.176;11.792;2023-01-04T07:50:57;2.30;23.70
2657;DHT22;1338;48.176;11.792;2023-01-04T07:53:25;2.40;99.90
2657;DHT22;1338;48.176;11.792;2023-01-04T07:55:57;2.50;80.00
2657;DHT22;1338;48.176;11.792;2023-01-04T07:58:29;2.40;82.80
2657;DHT22;1338;48.176;11.792;2023-01-04T08:01:05;2.50;94.30
2657;DHT22;1338;48.176;11.792;2023-01-04T08:03:35;2.60;99.90
2657;DHT22;1338;48.176;11.792;2023-01-04T08:06:03;2.70;1.00
2657;DHT22;1338;48.176;11.792;2023-01-04T08:08:31;2.70;1.00
2657;DHT22;1338;48.176;11.792;2023-01-04T08:11:00;2.90;1.00
2657;DHT22;1338;48.176;11.792;2023-01-04T08:13:28;3.00;1.00
2657;DHT22;1338;48.176;11.792;2023-01-04T08:15:57;3.00;1.00
2657;DHT22;1338;48.176;11.792;2023-01-04T08:18:25;3.10;1.00
2657;DHT22;1338;48.176;11.792;2023-01-04T08:21:02;3.10;1.00
2657;DHT22;1338;48.176;11.792;2023-01-04T08:23:31;3.20;1.00
2657;DHT22;1338;48.176;11.792;2023-01-04T08:26:03;3.40;1.00
2657;DHT22;1338;48.176;11.792;2023-01-04T08:28:32;3.80;1.00
2657;DHT22;1338;48.176;11.792;2023-01-04T08:31:05;3.60;1.00
2657;DHT22;1338;48.176;11.792;2023-01-04T08:33:37;3.70;1.00
2657;DHT22;1338;48.176;11.792;2023-01-04T08:36:11;3.90;1.00
2657;DHT22;1338;48.176;11.792;2023-01-04T08:38:40;4.00;1.00
2657;DHT22;1338;48.176;11.792;2023-01-04T08:41:28;4.20;1.00
2657;DHT22;1338;48.176;11.792;2023-01-04T08:44:16;4.40;1.00
2657;DHT22;1338;48.176;11.792;2023-01-04T08:46:45;4.60;1.00
2657;DHT22;1338;48.176;11.792;2023-01-04T08:49:13;4.80;1.00
2657;DHT22;1338;48.176;11.792;2023-01-04T08:51:43;4.80;1.00
2657;DHT22;1338;48.176;11.792;2023-01-04T08:54:12;4.80;99.90
2657;DHT22;1338;48.176;11.792;2023-01-04T08:56:40;4.90;99.90
2657;DHT22;1338;48.176;11.792;2023-01-04T08:59:10;5.00;99.90
2657;DHT22;1338;48.176;11.792;2023-01-04T09:01:40;5.10;99.90
2657;DHT22;1338;48.176;11.792;2023-01-04T09:04:08;5.20;99.90
2657;DHT22;1338;48.176;11.792;2023-01-04T09:06:37;5.20;99.90
2657;DHT22;1338;48.176;11.792;2023-01-04T09:09:07;5.40;99.90
2657;DHT22;1338;48.176;11.792;2023-01-04T09:11:37;5.40;99.90
2657;DHT22;1338;48.176;11.792;2023-01-04T09:14:05;5.50;99.90
2657;DHT22;1338;48.176;11.792;2023-01-04T09:16:36;5.60;99.90
2657;DHT22;1338;48.176;11.792;2023-01-04T09:19:04;5.70;99.90
2657;DHT22;1338;48.176;11.792;2023-01-04T09:21:33;5.70;99.90
2657;DHT22;1338;48.176;11.792;2023-01-04T09:24:02;5.80;99.90
2657;DHT22;1338;48.176;11.792;2023-01-04T09:26:31;5.90;99.90
2657;DHT22;1338;48.176;11.792;2023-01-04T09:29:00;5.90;99.90
2657;DHT22;1338;48.176;11.792;2023-01-04T09:31:29;6.00;99.90
2657;DHT22;1338;48.176;11.792;2023-01-04T09:33:59;6.10;99.90
2657;DHT22;1338;48.176;11.792;2023-01-04T09:36:40;6.20;99.90
2657;DHT22;1338;48.176;11.792;2023-01-04T09:39:09;6.30;99.90
2657;DHT22;1338;48.176;11.792;2023-01-04T09:41:54;6.40;99.90
2657;DHT22;1338;48.176;11.792;2023-01-04T09:44:35;6.50;99.90
2657;DHT22;1338;48.176;11.792;2023-01-04T09:47:33;6.70;99.90
2657;DHT22;1338;48.176;11.792;2023-01-04T09:50:04;6.90;56.30
2657;DHT22;1338;48.176;11.792;2023-01-04T09:52:45;7.10;1.00
2657;DHT22;1338;48.176;11.792;2023-01-04T09:55:18;7.20;1.00
2657;DHT22;1338;48.176;11.792;2023-01-04T09:58:16;7.30;1.00
2657;DHT22;1338;48.176;11.792;2023-01-04T10:00:58;7.50;1.00
2657;DHT22;1338;48.176;11.792;2023-01-04T10:03:30;7.50;1.00
2657;DHT22;1338;48.176;11.792;2023-01-04T10:06:00;7.60;1.00
2657;DHT22;1338;48.176;11.792;2023-01-04T10:08:29;7.60;1.00
2657;DHT22;1338;48.176;11.792;2023-01-04T10:11:18;7.70;1.00
2657;DHT22;1338;48.176;11.792;2023-01-04T10:14:08;7.70;1.00
2657;DHT22;1338;48.176;11.792;2023-01-04T10:16:52;7.70;1.00
2657;DHT22;1338;48.176;11.792;2023-01-04T10:19:49;7.70;1.00
2657;DHT22;1338;48.176;11.792;2023-01-04T10:22:46;7.80;1.00
2657;DHT22;1338;48.176;11.792;2023-01-04T10:25:22;7.90;1.00
2657;DHT22;1338;48.176;11.792;2023-01-04T10:28:02;7.90;1.00
2657;DHT22;1338;48.176;11.792;2023-01-04T10:30:39;7.90;1.00
2657;DHT22;1338;48.176;11.792;2023-01-04T10:33:11;7.90;1.00
2657;DHT22;1338;48.176;11.792;2023-01-04T10:35:42;7.90;1.00
2657;DHT22;1338;48.176;11.792;2023-01-04T10:38:15;8.00;1.00
2657;DHT22;1338;48.176;11.792;2023-01-04T10:40:46;8.00;1.00
2657;DHT22;1338;48.176;11.792;2023-01-04T10:43:27;8.10;1.00
2657;DHT22;1338;48.176;11.792;2023-01-04T10:46:27;8.20;1.00
2657;DHT22;1338;48.176;11.792;2023-01-04T10:48:59;8.30;1.00
2657;DHT22;1338;48.176;11.792;2023-01-04T10:51:36;8.30;1.00
2657;DHT22;1338;48.176;11.792;2023-01-04T10:54:12;8.30;1.00
2657;DHT22;1338;48.176;11.792;2023-01-04T10:56:44;8.50;1.00
2657;DHT22;1338;48.176;11.792;2023-01-04T10:59:18;8.50;1.00
2657;DHT22;1338;48.176;11.792;2023-01-04T11:01:54;8.30;1.00
2657;DHT22;1338;48.176;11.792;2023-01-04T11:04:27;8.30;1.00
2657;DHT22;1338;48.176;11.792;2023-01-04T11:07:04;8.30;1.00
2657;DHT22;1338;48.176;11.792;2023-01-04T11:09:37;8.30;1.00
2657;DHT22;1338;48.176;11.792;2023-01-04T11:12:08;8.30;1.00
2657;DHT22;1338;48.176;11.792;2023-01-04T11:14:37;8.20;1.00
2657;DHT22;1338;48.176;11.792;2023-01-04T11:17:09;8.20;1.00
2657;DHT22;1338;48.176;11.792;2023-01-04T11:19:38;8.10;1.00
2657;DHT22;1338;48.176;11.792;2023-01-04T11:22:12;8.20;1.00
2657;DHT22;1338;48.176;11.792;2023-01-04T11:24:43;8.20;1.00
2657;DHT22;1338;48.176;11.792;2023-01-04T11:27:37;8.10;1.00
2657;DHT22;1338;48.176;11.792;2023-01-04T11:30:15;8.20;1.00
2657;DHT22;1338;48.176;11.792;2023-01-04T11:32:49;8.20;1.00
2657;DHT22;1338;48.176;11.792;2023-01-04T11:35:40;8.20;1.00
2657;DHT22;1338;48.176;11.792;2023-01-04T11:38:12;8.20;1.00
2657;DHT22;1338;48.176;11.792;2023-01-04T11:40:41;8.20;1.00
2657;DHT22;1338;48.176;11.792;2023-01-04T11:43:13;8.20;1.00
2657;DHT22;1338;48.176;11.792;2023-01-04T11:45:53;8.20;1.00
2657;DHT22;1338;48.176;11.792;2023-01-04T11:48:38;8.20;1.00
2657;DHT22;1338;48.176;11.792;2023-01-04T11:51:19;8.20;1.00
2657;DHT22;1338;48.176;11.792;2023-01-04T11:54:00;8.40;1.00
2657;DHT22;1338;48.176;11.792;2023-01-04T11:56:29;8.40;1.00
2657;DHT22;1338;48.176;11.792;2023-01-04T11:59:19;8.50;1.00
2657;DHT22;1338;48.176;11.792;2023-01-04T12:02:14;8.50;1.00
2657;DHT22;1338;48.176;11.792;2023-01-04T12:05:15;8.60;1.00
2657;DHT22;1338;48.176;11.792;2023-01-04T12:07:54;8.60;1.00
2657;DHT22;1338;48.176;11.792;2023-01-04T12:10:24;8.60;1.00
2657;DHT22;1338;48.176;11.792;2023-01-04T12:12:54;8.60;1.00
2657;DHT22;1338;48.176;11.792;2023-01-04T12:15:27;8.60;1.00
2657;DHT22;1338;48.176;11.792;2023-01-04T12:18:02;8.60;1.00
2657;DHT22;1338;48.176;11.792;2023-01-04T12:20:32;8.60;1.00
2657;DHT22;1338;48.176;11.792;2023-01-04T12:23:02;8.50;1.00
2657;DHT22;1338;48.176;11.792;2023-01-04T12:25:34;8.60;1.00
2657;DHT22;1338;48.176;11.792;2023-01-04T12:28:05;8.70;1.00
2657;DHT22;1338;48.176;11.792;2023-01-04T12:30:36;8.70;1.00
2657;DHT22;1338;48.176;11.792;2023-01-04T12:33:37;8.70;1.00
2657;DHT22;1338;48.176;11.792;2023-01-04T12:36:08;8.70;1.00
2657;DHT22;1338;48.176;11.792;2023-01-04T12:38:57;8.70;1.00
2657;DHT22;1338;48.176;11.792;2023-01-04T12:47:49;8.80;1.00
2657;DHT22;1338;48.176;11.792;2023-01-04T12:54:03;8.90;1.00
2657;DHT22;1338;48.176;11.792;2023-01-04T12:57:10;8.90;1.00
2657;DHT22;1338;48.176;11.792;2023-01-04T12:59:39;8.90;1.00
2657;DHT22;1338;48.176;11.792;2023-01-04T13:02:22;9.00;1.00
2657;DHT22;1338;48.176;11.792;2023-01-04T13:04:52;9.00;1.00
2657;DHT22;1338;48.176;11.792;2023-01-04T13:07:44;9.00;1.00
2657;DHT22;1338;48.176;11.792;2023-01-04T13:10:25;9.00;1.00
2657;DHT22;1338;48.176;11.792;2023-01-04T13:12:59;9.00;1.00
2657;DHT22;1338;48.176;11.792;2023-01-04T13:15:44;9.00;1.00
2657;DHT22;1338;48.176;11.792;2023-01-04T13:18:32;9.10;1.00
2657;DHT22;1338;48.176;11.792;2023-01-04T13:21:02;9.10;1.00
2657;DHT22;1338;48.176;11.792;2023-01-04T13:23:31;9.20;1.00
2657;DHT22;1338;48.176;11.792;2023-01-04T13:26:35;9.30;1.00
2657;DHT22;1338;48.176;11.792;2023-01-04T13:29:11;9.40;1.00
2657;DHT22;1338;48.176;11.792;2023-01-04T13:31:47;9.50;99.90
2657;DHT22;1338;48.176;11.792;2023-01-04T13:34:22;9.50;99.90
2657;DHT22;1338;48.176;11.792;2023-01-04T13:37:06;9.60;99.90
2657;DHT22;1338;48.176;11.792;2023-01-04T13:39:35;9.60;99.90
2657;DHT22;1338;48.176;11.792;2023-01-04T13:42:06;9.60;99.90
2657;DHT22;1338;48.176;11.792;2023-01-04T13:47:50;9.70;99.90
2657;DHT22;1338;48.176;11.792;2023-01-04T13:50:32;9.70;99.90
2657;DHT22;1338;48.176;11.792;2023-01-04T13:53:01;9.70;99.90
2657;DHT22;1338;48.176;11.792;2023-01-04T13:55:35;10.10;99.90
2657;DHT22;1338;48.176;11.792;2023-01-04T13:58:14;10.00;99.90
2657;DHT22;1338;48.176;11.792;2023-01-04T14:00:44;10.10;99.90
2657;DHT22;1338;48.176;11.792;2023-01-04T14:03:33;10.10;99.90
2657;DHT22;1338;48.176;11.792;2023-01-04T14:06:15;10.00;99.90
2657;DHT22;1338;48.176;11.792;2023-01-04T14:08:49;10.00;99.90
2657;DHT22;1338;48.176;11.792;2023-01-04T14:11:21;10.00;99.90
2657;DHT22;1338;48.176;11.792;2023-01-04T14:14:23;9.90;99.90
2657;DHT22;1338;48.176;11.792;2023-01-04T14:17:13;10.00;99.90
2657;DHT22;1338;48.176;11.792;2023-01-04T14:19:45;10.10;99.90
2657;DHT22;1338;48.176;11.792;2023-01-04T14:25:36;9.90;99.90
2657;DHT22;1338;48.176;11.792;2023-01-04T14:28:34;10.20;99.90
2657;DHT22;1338;48.176;11.792;2023-01-04T14:31:20;9.90;99.90
2657;DHT22;1338;48.176;11.792;2023-01-04T14:33:52;9.90;99.90
2657;DHT22;1338;48.176;11.792;2023-01-04T14:36:22;9.90;99.90
2657;DHT22;1338;48.176;11.792;2023-01-04T14:39:08;10.00;99.90
2657;DHT22;1338;48.176;11.792;2023-01-04T14:41:41;10.00;99.90
2657;DHT22;1338;48.176;11.792;2023-01-04T14:44:12;9.90;99.90
2657;DHT22;1338;48.176;11.792;2023-01-04T14:46:41;9.90;99.90
2657;DHT22;1338;48.176;11.792;2023-01-04T14:49:13;10.00;99.90
2657;DHT22;1338;48.176;11.792;2023-01-04T14:51:43;10.10;99.90
2657;DHT22;1338;48.176;11.792;2023-01-04T14:54:13;9.90;99.90
2657;DHT22;1338;48.176;11.792;2023-01-04T14:56:52;9.90;99.90
2657;DHT22;1338;48.176;11.792;2023-01-04T14:59:21;10.00;99.90
2657;DHT22;1338;48.176;11.792;2023-01-04T15:01:51;9.90;99.90
2657;DHT22;1338;48.176;11.792;2023-01-04T15:04:19;9.70;99.90
2657;DHT22;1338;48.176;11.792;2023-01-04T15:06:50;9.90;99.90
2657;DHT22;1338;48.176;11.792;2023-01-04T15:09:18;9.80;99.90
2657;DHT22;1338;48.176;11.792;2023-01-04T15:11:47;10.00;99.90
2657;DHT22;1338;48.176;11.792;2023-01-04T15:14:18;9.90;99.90
2657;DHT22;1338;48.176;11.792;2023-01-04T15:16:46;9.90;99.90
2657;DHT22;1338;48.176;11.792;2023-01-04T15:19:14;9.90;99.90
2657;DHT22;1338;48.176;11.792;2023-01-04T15:21:43;10.20;99.90
2657;DHT22;1338;48.176;11.792;2023-01-04T15:24:11;10.00;99.90
2657;DHT22;1338;48.176;11.792;2023-01-04T15:26:39;9.80;99.90
2657;DHT22;1338;48.176;11.792;2023-01-04T15:29:09;9.80;99.90
2657;DHT22;1338;48.176;11.792;2023-01-04T15:31:38;9.80;99.90
2657;DHT22;1338;48.176;11.792;2023-01-04T15:34:08;9.90;99.90
2657;DHT22;1338;48.176;11.792;2023-01-04T15:36:37;10.00;99.90
2657;DHT22;1338;48.176;11.792;2023-01-04T15:39:10;9.90;99.90
2657;DHT22;1338;48.176;11.792;2023-01-04T15:41:38;9.80;99.90
2657;DHT22;1338;48.176;11.792;2023-01-04T15:44:25;10.10;99.90
2657;DHT22;1338;48.176;11.792;2023-01-04T15:46:54;10.30;99.90
2657;DHT22;1338;48.176;11.792;2023-01-04T15:49:25;10.10;99.90
2657;DHT22;1338;48.176;11.792;2023-01-04T15:51:55;10.10;99.90
2657;DHT22;1338;48.176;11.792;2023-01-04T15:54:24;10.10;99.90
2657;DHT22;1338;48.176;11.792;2023-01-04T15:56:52;10.00;99.90
2657;DHT22;1338;48.176;11.792;2023-01-04T15:59:20;10.20;99.90
2657;DHT22;1338;48.176;11.792;2023-01-04T16:01:48;10.20;99.90
2657;DHT22;1338;48.176;11.792;2023-01-04T16:04:18;10.10;99.90
2657;DHT22;1338;48.176;11.792;2023-01-04T16:06:46;10.00;99.90
2657;DHT22;1338;48.176;11.792;2023-01-04T16:09:14;9.90;99.90
2657;DHT22;1338;48.176;11.792;2023-01-04T16:11:42;10.00;99.90
2657;DHT22;1338;48.176;11.792;2023-01-04T16:14:24;10.10;99.90
2657;DHT22;1338;48.176;11.792;2023-01-04T16:16:53;9.80;99.90
2657;DHT22;1338;48.176;11.792;2023-01-04T16:19:22;9.80;99.90
2657;DHT22;1338;48.176;11.792;2023-01-04T16:21:50;9.90;99.90
2657;DHT22;1338;48.176;11.792;2023-01-04T16:24:19;9.80;99.90
2657;DHT22;1338;48.176;11.792;2023-01-04T16:27:07;9.90;99.90
2657;DHT22;1338;48.176;11.792;2023-01-04T16:29:35;9.60;99.90
2657;DHT22;1338;48.176;11.792;2023-01-04T16:32:04;9.80;99.90
2657;DHT22;1338;48.176;11.792;2023-01-04T16:34:33;9.80;99.90
2657;DHT22;1338;48.176;11.792;2023-01-04T16:37:02;9.90;99.90
2657;DHT22;1338;48.176;11.792;2023-01-04T16:39:30;9.90;99.90
2657;DHT22;1338;48.176;11.792;2023-01-04T16:42:19;9.80;99.90
2657;DHT22;1338;48.176;11.792;2023-01-04T16:44:47;9.80;99.90
2657;DHT22;1338;48.176;11.792;2023-01-04T16:47:15;9.50;99.90
2657;DHT22;1338;48.176;11.792;2023-01-04T16:49:49;9.90;99.90
2657;DHT22;1338;48.176;11.792;2023-01-04T16:52:17;9.80;99.90
2657;DHT22;1338;48.176;11.792;2023-01-04T16:54:46;9.80;99.90
2657;DHT22;1338;48.176;11.792;2023-01-04T16:57:15;9.90;99.90
2657;DHT22;1338;48.176;11.792;2023-01-04T16:59:43;9.80;99.90
2657;DHT22;1338;48.176;11.792;2023-01-04T17:02:11;10.10;99.90
2657;DHT22;1338;48.176;11.792;2023-01-04T17:04:39;9.90;99.90
2657;DHT22;1338;48.176;11.792;2023-01-04T17:07:09;10.00;99.90
2657;DHT22;1338;48.176;11.792;2023-01-04T17:09:37;9.90;99.90
2657;DHT22;1338;48.176;11.792;2023-01-04T17:12:06;9.90;99.90
2657;DHT22;1338;48.176;11.792;2023-01-04T17:14:55;9.90;99.90